Aérodrome :
LOGIN :

S'inscrire | Disclaimer

   EN    FR    IT 

 










Légende :    VFR   VFR Marginal   IFR   IFR Intensif   IFR Très Intensif
Visi : 
Plafond : 
>= 8 km
>= 3000ft
5 à 8 km
1000 à 3000 ft
1500m à 5 km
500 à 1000 ft
800 à 1500m
200 à 500 ft
< 800m
< 200 ft
Symboles :   Orages  Brouillard  Fortes neiges  Fortes précipitations  Vent > 20 kt
SIGMETs :   Divers  Orages  Givrage  Turbulence  Onde Orograph.  Cendres Volcan.






- Altitude de l'aérodrome : 302 ft
- Code IATA : CGN


EDDK - Cologne Bonn

DERNIER METAR :
  • 311920Z 20007KT 9999 FEW040 18/13 Q1010 NOSIG

METARs EXPIRÉS :
  • 311850Z 24007KT 9999 FEW038 FEW040TCU 19/13 Q1010 NOSIG
  • 311820Z 24012KT 9999 FEW038 20/13 Q1010 BECMG 22005KT
  • 311750Z 24012KT 9999 VCSH FEW038 FEW040TCU 20/12 Q1009 BECMG 22005KT
  • 311720Z 24009KT 9999 SCT040 20/12 Q1009 NOSIG
  • 311650Z 26005KT 230V290 9999 SCT040 21/12 Q1009 NOSIG

TAF TAF EDDK
Valide du 31 à 18h jusqu'au 02 à 00h UTC


311700Z 3118/0124 26006KT 9999 SCT040
BECMG 3119/3122 16004KT
BECMG 0105/0108 26009KT
TEMPO 0114/0122 SHRA BKN030CB
PROB30
TEMPO 0115/0119 TSRA
BECMG 0118/0121 26004KT



MET'MAP, la Météo Aéronautique d'un coup d'oeil ! - Copyright ORBIFLY Décembre 2007 - Disclaimer

ORBIFLY MET'MAP TEAM :

Programmation & Développement : Alexandra Zaïnal
Sur une idée originale de : Baudouin d'Aumeries
Assistance à la programmation : Marc-Olivier Méhu
Soutien technique & logistique : Manuel Goepfert

Contact : metmap@orbifly.com




SOURCES & CREDITS :

   NOAA